sensor_id;sensor_type;location;lat;lon;timestamp;pressure;altitude;pressure_sealevel;temperature;humidity
54042;BME280;41156;51.508;5.406;2023-07-20T00:01:19;101276.06;;;18.39;89.92
54042;BME280;41156;51.508;5.406;2023-07-20T00:04:19;101269.44;;;18.35;90.25
54042;BME280;41156;51.508;5.406;2023-07-20T00:07:20;101271.31;;;18.29;90.40
54042;BME280;41156;51.508;5.406;2023-07-20T00:10:20;101269.88;;;18.26;90.58
54042;BME280;41156;51.508;5.406;2023-07-20T00:13:20;101279.19;;;18.25;90.98
54042;BME280;41156;51.508;5.406;2023-07-20T00:16:21;101274.22;;;18.22;90.80
54042;BME280;41156;51.508;5.406;2023-07-20T00:19:23;101278.78;;;18.17;91.88
54042;BME280;41156;51.508;5.406;2023-07-20T00:22:23;101267.53;;;18.13;91.44
54042;BME280;41156;51.508;5.406;2023-07-20T00:25:24;101275.44;;;18.09;92.11
54042;BME280;41156;51.508;5.406;2023-07-20T00:28:25;101280.34;;;18.07;92.09
54042;BME280;41156;51.508;5.406;2023-07-20T00:31:25;101285.56;;;18.09;92.15
54042;BME280;41156;51.508;5.406;2023-07-20T00:34:27;101279.84;;;18.10;92.48
54042;BME280;41156;51.508;5.406;2023-07-20T00:37:27;101271.38;;;18.12;92.58
54042;BME280;41156;51.508;5.406;2023-07-20T00:40:27;101276.00;;;18.11;92.61
54042;BME280;41156;51.508;5.406;2023-07-20T00:43:27;101272.97;;;18.08;93.04
54042;BME280;41156;51.508;5.406;2023-07-20T00:46:28;101272.06;;;18.02;92.63
54042;BME280;41156;51.508;5.406;2023-07-20T00:49:28;101279.63;;;17.95;92.93
54042;BME280;41156;51.508;5.406;2023-07-20T00:52:29;101279.81;;;17.88;93.42
54042;BME280;41156;51.508;5.406;2023-07-20T00:55:30;101278.41;;;17.86;93.24
54042;BME280;41156;51.508;5.406;2023-07-20T00:58:30;101278.56;;;17.79;93.78
54042;BME280;41156;51.508;5.406;2023-07-20T01:01:31;101269.75;;;17.72;94.18
54042;BME280;41156;51.508;5.406;2023-07-20T01:04:31;101274.88;;;17.68;93.90
54042;BME280;41156;51.508;5.406;2023-07-20T01:07:36;101275.03;;;17.62;96.08
54042;BME280;41156;51.508;5.406;2023-07-20T01:10:55;101274.16;;;17.56;95.86
54042;BME280;41156;51.508;5.406;2023-07-20T01:13:57;101274.66;;;17.53;94.98
54042;BME280;41156;51.508;5.406;2023-07-20T01:16:58;101277.88;;;17.50;95.04
54042;BME280;41156;51.508;5.406;2023-07-20T01:19:58;101276.25;;;17.49;95.78
54042;BME280;41156;51.508;5.406;2023-07-20T01:33:33;101290.81;;;17.37;96.90
54042;BME280;41156;51.508;5.406;2023-07-20T01:36:35;101294.63;;;17.36;97.12
54042;BME280;41156;51.508;5.406;2023-07-20T01:39:37;101300.16;;;17.42;97.02
54042;BME280;41156;51.508;5.406;2023-07-20T01:42:38;101294.75;;;17.47;97.19
54042;BME280;41156;51.508;5.406;2023-07-20T01:45:38;101292.09;;;17.52;97.20
54042;BME280;41156;51.508;5.406;2023-07-20T01:48:39;101293.53;;;17.54;97.18
54042;BME280;41156;51.508;5.406;2023-07-20T01:51:40;101294.94;;;17.57;97.29
54042;BME280;41156;51.508;5.406;2023-07-20T01:54:40;101293.28;;;17.56;97.08
54042;BME280;41156;51.508;5.406;2023-07-20T01:57:41;101293.28;;;17.56;97.92
54042;BME280;41156;51.508;5.406;2023-07-20T02:00:41;101299.06;;;17.60;97.87
54042;BME280;41156;51.508;5.406;2023-07-20T02:03:41;101302.63;;;17.60;98.52
54042;BME280;41156;51.508;5.406;2023-07-20T02:06:42;101301.56;;;17.61;98.71
54042;BME280;41156;51.508;5.406;2023-07-20T02:09:42;101299.63;;;17.62;98.81
54042;BME280;41156;51.508;5.406;2023-07-20T02:12:43;101301.31;;;17.63;99.14
54042;BME280;41156;51.508;5.406;2023-07-20T02:15:43;101311.97;;;17.64;99.30
54042;BME280;41156;51.508;5.406;2023-07-20T02:18:43;101311.41;;;17.62;99.75
54042;BME280;41156;51.508;5.406;2023-07-20T02:21:44;101314.06;;;17.57;99.65
54042;BME280;41156;51.508;5.406;2023-07-20T02:24:44;101312.41;;;17.56;100.00
54042;BME280;41156;51.508;5.406;2023-07-20T02:27:45;101316.81;;;17.57;100.00
54042;BME280;41156;51.508;5.406;2023-07-20T02:30:45;101312.97;;;17.58;100.00
54042;BME280;41156;51.508;5.406;2023-07-20T02:33:46;101319.00;;;17.60;100.00
54042;BME280;41156;51.508;5.406;2023-07-20T02:36:46;101319.38;;;17.64;100.00
54042;BME280;41156;51.508;5.406;2023-07-20T02:39:48;101323.47;;;17.66;100.00
54042;BME280;41156;51.508;5.406;2023-07-20T02:42:48;101326.53;;;17.70;100.00
54042;BME280;41156;51.508;5.406;2023-07-20T02:45:50;101328.19;;;17.71;100.00
54042;BME280;41156;51.508;5.406;2023-07-20T02:48:50;101327.38;;;17.70;100.00
54042;BME280;41156;51.508;5.406;2023-07-20T02:51:50;101326.53;;;17.70;100.00
54042;BME280;41156;51.508;5.406;2023-07-20T02:54:51;101329.19;;;17.65;100.00
54042;BME280;41156;51.508;5.406;2023-07-20T02:57:51;101330.03;;;17.65;100.00
54042;BME280;41156;51.508;5.406;2023-07-20T03:00:52;101342.03;;;17.64;100.00
54042;BME280;41156;51.508;5.406;2023-07-20T03:03:52;101343.09;;;17.63;100.00
54042;BME280;41156;51.508;5.406;2023-07-20T03:06:52;101347.75;;;17.63;100.00
54042;BME280;41156;51.508;5.406;2023-07-20T03:09:53;101349.66;;;17.62;100.00
54042;BME280;41156;51.508;5.406;2023-07-20T03:12:53;101347.94;;;17.56;100.00
54042;BME280;41156;51.508;5.406;2023-07-20T03:15:54;101355.56;;;17.54;100.00
54042;BME280;41156;51.508;5.406;2023-07-20T03:18:54;101355.72;;;17.47;100.00
54042;BME280;41156;51.508;5.406;2023-07-20T03:21:54;101358.38;;;17.42;100.00
54042;BME280;41156;51.508;5.406;2023-07-20T03:24:55;101358.63;;;17.41;100.00
54042;BME280;41156;51.508;5.406;2023-07-20T03:27:55;101364.66;;;17.43;100.00
54042;BME280;41156;51.508;5.406;2023-07-20T03:30:56;101360.25;;;17.42;100.00
54042;BME280;41156;51.508;5.406;2023-07-20T03:33:57;101361.03;;;17.37;100.00
54042;BME280;41156;51.508;5.406;2023-07-20T03:36:57;101357.34;;;17.31;100.00
54042;BME280;41156;51.508;5.406;2023-07-20T03:39:57;101360.00;;;17.26;100.00
54042;BME280;41156;51.508;5.406;2023-07-20T03:42:57;101371.91;;;17.20;100.00
54042;BME280;41156;51.508;5.406;2023-07-20T03:45:58;101363.88;;;17.13;100.00
54042;BME280;41156;51.508;5.406;2023-07-20T03:48:58;101368.75;;;17.11;100.00
54042;BME280;41156;51.508;5.406;2023-07-20T03:51:58;101367.94;;;17.11;100.00
54042;BME280;41156;51.508;5.406;2023-07-20T03:54:59;101378.78;;;17.06;100.00
54042;BME280;41156;51.508;5.406;2023-07-20T03:57:59;101378.16;;;17.04;100.00
54042;BME280;41156;51.508;5.406;2023-07-20T04:01:00;101378.16;;;17.04;100.00
54042;BME280;41156;51.508;5.406;2023-07-20T04:04:00;101365.59;;;17.02;100.00
54042;BME280;41156;51.508;5.406;2023-07-20T04:07:01;101375.44;;;17.04;100.00
54042;BME280;41156;51.508;5.406;2023-07-20T04:10:01;101382.00;;;17.02;100.00
54042;BME280;41156;51.508;5.406;2023-07-20T04:13:01;101385.78;;;17.01;100.00
54042;BME280;41156;51.508;5.406;2023-07-20T04:16:02;101380.31;;;17.01;100.00
54042;BME280;41156;51.508;5.406;2023-07-20T04:19:02;101385.28;;;17.05;100.00
54042;BME280;41156;51.508;5.406;2023-07-20T04:22:03;101388.84;;;17.05;100.00
54042;BME280;41156;51.508;5.406;2023-07-20T04:25:04;101382.00;;;17.02;100.00
54042;BME280;41156;51.508;5.406;2023-07-20T04:28:06;101374.19;;;16.94;100.00
54042;BME280;41156;51.508;5.406;2023-07-20T04:34:12;101386.56;;;16.85;100.00
54042;BME280;41156;51.508;5.406;2023-07-20T04:37:12;101389.16;;;16.80;100.00
54042;BME280;41156;51.508;5.406;2023-07-20T04:40:15;101389.66;;;16.77;100.00
54042;BME280;41156;51.508;5.406;2023-07-20T04:43:16;101385.19;;;16.71;100.00
54042;BME280;41156;51.508;5.406;2023-07-20T04:46:17;101385.66;;;16.68;100.00
54042;BME280;41156;51.508;5.406;2023-07-20T04:49:19;101387.56;;;16.67;100.00
54042;BME280;41156;51.508;5.406;2023-07-20T04:52:19;101388.16;;;16.69;100.00
54042;BME280;41156;51.508;5.406;2023-07-20T04:55:19;101387.31;;;16.69;100.00
54042;BME280;41156;51.508;5.406;2023-07-20T04:58:20;101387.31;;;16.69;100.00
54042;BME280;41156;51.508;5.406;2023-07-20T05:01:21;101387.31;;;16.69;100.00
54042;BME280;41156;51.508;5.406;2023-07-20T05:04:21;101377.72;;;16.66;100.00
54042;BME280;41156;51.508;5.406;2023-07-20T05:07:22;101379.13;;;16.69;100.00
54042;BME280;41156;51.508;5.406;2023-07-20T05:10:23;101377.81;;;16.71;100.00
54042;BME280;41156;51.508;5.406;2023-07-20T05:13:24;101379.25;;;16.74;100.00
54042;BME280;41156;51.508;5.406;2023-07-20T05:16:24;101384.31;;;16.82;100.00
54042;BME280;41156;51.508;5.406;2023-07-20T05:19:25;101383.59;;;16.87;100.00
54042;BME280;41156;51.508;5.406;2023-07-20T05:22:25;101395.13;;;16.89;100.00
54042;BME280;41156;51.508;5.406;2023-07-20T05:25:26;101391.38;;;16.95;100.00
54042;BME280;41156;51.508;5.406;2023-07-20T05:28:26;101388.41;;;16.96;100.00
54042;BME280;41156;51.508;5.406;2023-07-20T05:31:27;101393.06;;;16.96;100.00
54042;BME280;41156;51.508;5.406;2023-07-20T05:34:30;101400.75;;;16.99;100.00
54042;BME280;41156;51.508;5.406;2023-07-20T05:37:31;101399.19;;;17.03;100.00
54042;BME280;41156;51.508;5.406;2023-07-20T05:40:31;101402.00;;;17.08;100.00
54042;BME280;41156;51.508;5.406;2023-07-20T05:43:32;101405.69;;;17.14;100.00
54042;BME280;41156;51.508;5.406;2023-07-20T05:46:32;101409.00;;;17.16;100.00
54042;BME280;41156;51.508;5.406;2023-07-20T05:49:33;101412.88;;;17.20;100.00
54042;BME280;41156;51.508;5.406;2023-07-20T05:52:34;101416.31;;;17.27;100.00
54042;BME280;41156;51.508;5.406;2023-07-20T05:55:34;101416.97;;;17.34;100.00
54042;BME280;41156;51.508;5.406;2023-07-20T05:58:34;101408.53;;;17.36;100.00
54042;BME280;41156;51.508;5.406;2023-07-20T06:01:35;101415.38;;;17.38;100.00
54042;BME280;41156;51.508;5.406;2023-07-20T06:04:35;101422.94;;;17.48;100.00
54042;BME280;41156;51.508;5.406;2023-07-20T06:07:38;101421.13;;;17.54;100.00
54042;BME280;41156;51.508;5.406;2023-07-20T06:10:38;101421.06;;;17.66;100.00
54042;BME280;41156;51.508;5.406;2023-07-20T06:13:39;101429.72;;;17.80;100.00
54042;BME280;41156;51.508;5.406;2023-07-20T06:16:39;101424.44;;;17.90;100.00
54042;BME280;41156;51.508;5.406;2023-07-20T06:19:39;101418.56;;;17.98;100.00
54042;BME280;41156;51.508;5.406;2023-07-20T06:22:40;101426.09;;;18.08;100.00
54042;BME280;41156;51.508;5.406;2023-07-20T06:25:40;101435.72;;;18.10;100.00
54042;BME280;41156;51.508;5.406;2023-07-20T06:28:41;101431.97;;;18.17;100.00
54042;BME280;41156;51.508;5.406;2023-07-20T06:31:41;101434.88;;;18.27;100.00
54042;BME280;41156;51.508;5.406;2023-07-20T06:34:41;101430.53;;;18.31;100.00
54042;BME280;41156;51.508;5.406;2023-07-20T06:37:42;101440.28;;;18.44;100.00
54042;BME280;41156;51.508;5.406;2023-07-20T06:40:42;101429.16;;;18.51;99.39
54042;BME280;41156;51.508;5.406;2023-07-20T06:43:42;101424.75;;;18.49;99.26
54042;BME280;41156;51.508;5.406;2023-07-20T06:46:42;101425.38;;;18.57;98.14
54042;BME280;41156;51.508;5.406;2023-07-20T06:49:43;101423.75;;;18.56;98.61
54042;BME280;41156;51.508;5.406;2023-07-20T06:52:43;101421.25;;;18.54;97.72
54042;BME280;41156;51.508;5.406;2023-07-20T06:55:44;101425.84;;;18.48;97.39
54042;BME280;41156;51.508;5.406;2023-07-20T06:58:44;101425.84;;;18.48;97.40
54042;BME280;41156;51.508;5.406;2023-07-20T07:01:44;101430.66;;;18.63;95.93
54042;BME280;41156;51.508;5.406;2023-07-20T07:04:45;101437.09;;;18.74;96.54
54042;BME280;41156;51.508;5.406;2023-07-20T07:07:47;101431.53;;;18.86;96.01
54042;BME280;41156;51.508;5.406;2023-07-20T07:10:47;101439.03;;;18.96;95.57
54042;BME280;41156;51.508;5.406;2023-07-20T07:13:47;101435.06;;;19.09;94.69
54042;BME280;41156;51.508;5.406;2023-07-20T07:16:50;101441.69;;;19.13;93.92
54042;BME280;41156;51.508;5.406;2023-07-20T07:19:52;101442.75;;;19.12;93.80
54042;BME280;41156;51.508;5.406;2023-07-20T07:22:55;101447.66;;;19.10;93.23
54042;BME280;41156;51.508;5.406;2023-07-20T07:25:55;101446.94;;;19.19;93.03
54042;BME280;41156;51.508;5.406;2023-07-20T07:28:56;101434.06;;;19.47;92.30
54042;BME280;41156;51.508;5.406;2023-07-20T07:31:56;101440.28;;;19.70;90.95
54042;BME280;41156;51.508;5.406;2023-07-20T07:34:57;101445.94;;;19.85;90.31
54042;BME280;41156;51.508;5.406;2023-07-20T07:37:58;101440.28;;;19.97;88.92
54042;BME280;41156;51.508;5.406;2023-07-20T07:40:59;101444.09;;;19.96;88.48
54042;BME280;41156;51.508;5.406;2023-07-20T07:43:59;101446.78;;;19.91;88.24
54042;BME280;41156;51.508;5.406;2023-07-20T07:47:00;101445.50;;;19.99;87.36
54042;BME280;41156;51.508;5.406;2023-07-20T07:50:00;101456.28;;;20.10;86.76
54042;BME280;41156;51.508;5.406;2023-07-20T07:53:00;101455.13;;;20.06;86.50
54042;BME280;41156;51.508;5.406;2023-07-20T07:56:01;101458.09;;;20.00;86.54
54042;BME280;41156;51.508;5.406;2023-07-20T07:59:03;101458.09;;;20.00;85.93
54042;BME280;41156;51.508;5.406;2023-07-20T08:02:05;101462.50;;;20.01;85.50
54042;BME280;41156;51.508;5.406;2023-07-20T08:05:06;101469.72;;;20.12;84.99
54042;BME280;41156;51.508;5.406;2023-07-20T08:08:06;101464.59;;;20.26;84.16
54042;BME280;41156;51.508;5.406;2023-07-20T08:11:06;101463.94;;;20.56;83.68
54042;BME280;41156;51.508;5.406;2023-07-20T08:14:07;101462.72;;;20.84;83.03
54042;BME280;41156;51.508;5.406;2023-07-20T08:17:07;101466.09;;;21.12;82.56
54042;BME280;41156;51.508;5.406;2023-07-20T08:20:08;101467.03;;;21.54;82.74
54042;BME280;41156;51.508;5.406;2023-07-20T08:23:12;101467.03;;;21.90;68.29
54042;BME280;41156;51.508;5.406;2023-07-20T08:26:13;101466.47;;;22.13;80.28
54042;BME280;41156;51.508;5.406;2023-07-20T08:29:13;101469.97;;;22.55;77.46
54042;BME280;41156;51.508;5.406;2023-07-20T08:32:14;101465.41;;;22.95;76.21
54042;BME280;41156;51.508;5.406;2023-07-20T08:35:14;101467.88;;;22.97;74.01
54042;BME280;41156;51.508;5.406;2023-07-20T08:38:15;101465.72;;;22.78;72.56
54042;BME280;41156;51.508;5.406;2023-07-20T08:41:19;101467.53;;;22.48;62.34
54042;BME280;41156;51.508;5.406;2023-07-20T08:44:20;101466.72;;;22.22;70.89
54042;BME280;41156;51.508;5.406;2023-07-20T08:47:22;101464.22;;;22.41;69.11
54042;BME280;41156;51.508;5.406;2023-07-20T08:50:23;101461.91;;;22.74;69.60
54042;BME280;41156;51.508;5.406;2023-07-20T08:53:24;101447.31;;;23.28;68.10
54042;BME280;41156;51.508;5.406;2023-07-20T08:56:25;101450.34;;;23.67;65.32
54042;BME280;41156;51.508;5.406;2023-07-20T08:59:26;101451.84;;;23.88;64.54
54042;BME280;41156;51.508;5.406;2023-07-20T09:02:29;101450.31;;;24.01;60.23
54042;BME280;41156;51.508;5.406;2023-07-20T09:05:29;101445.13;;;24.24;62.69
54042;BME280;41156;51.508;5.406;2023-07-20T09:08:30;101456.41;;;24.56;60.42
54042;BME280;41156;51.508;5.406;2023-07-20T09:11:31;101447.25;;;24.80;60.17
54042;BME280;41156;51.508;5.406;2023-07-20T09:14:31;101443.69;;;25.18;59.11
54042;BME280;41156;51.508;5.406;2023-07-20T09:17:32;101444.22;;;25.39;57.90
54042;BME280;41156;51.508;5.406;2023-07-20T09:20:33;101441.00;;;25.51;56.84
54042;BME280;41156;51.508;5.406;2023-07-20T09:23:38;101438.44;;;25.54;55.61
54042;BME280;41156;51.508;5.406;2023-07-20T09:26:44;101437.78;;;25.76;51.08
54042;BME280;41156;51.508;5.406;2023-07-20T09:29:51;101437.16;;;25.98;51.80
54042;BME280;41156;51.508;5.406;2023-07-20T09:32:52;101443.84;;;25.45;52.21
54042;BME280;41156;51.508;5.406;2023-07-20T09:35:52;101435.59;;;25.02;54.67
54042;BME280;41156;51.508;5.406;2023-07-20T09:38:52;101441.56;;;24.71;55.32
54042;BME280;41156;51.508;5.406;2023-07-20T09:41:53;101432.44;;;24.23;55.28
54042;BME280;41156;51.508;5.406;2023-07-20T09:44:53;101436.75;;;23.75;56.88
54042;BME280;41156;51.508;5.406;2023-07-20T09:48:03;101431.22;;;23.41;57.10
54042;BME280;41156;51.508;5.406;2023-07-20T09:51:03;101436.84;;;23.25;57.67
54042;BME280;41156;51.508;5.406;2023-07-20T09:54:05;101437.50;;;23.12;58.47
54042;BME280;41156;51.508;5.406;2023-07-20T09:57:08;101437.00;;;22.95;58.09
54042;BME280;41156;51.508;5.406;2023-07-20T10:00:09;101432.41;;;22.75;58.80
54042;BME280;41156;51.508;5.406;2023-07-20T10:03:18;101437.22;;;22.48;59.42
54042;BME280;41156;51.508;5.406;2023-07-20T10:06:23;101431.69;;;22.59;59.74
54042;BME280;41156;51.508;5.406;2023-07-20T10:09:25;101436.69;;;23.12;59.49
54042;BME280;41156;51.508;5.406;2023-07-20T10:12:26;101432.13;;;23.65;58.73
54042;BME280;41156;51.508;5.406;2023-07-20T10:15:36;101428.41;;;24.15;55.99
54042;BME280;41156;51.508;5.406;2023-07-20T10:21:48;101427.44;;;24.73;54.62
54042;BME280;41156;51.508;5.406;2023-07-20T10:24:50;101418.47;;;24.81;49.81
54042;BME280;41156;51.508;5.406;2023-07-20T10:27:51;101419.69;;;24.94;54.44
54042;BME280;41156;51.508;5.406;2023-07-20T10:30:52;101412.97;;;25.19;53.95
54042;BME280;41156;51.508;5.406;2023-07-20T10:33:53;101409.97;;;25.54;53.60
54042;BME280;41156;51.508;5.406;2023-07-20T10:36:54;101411.34;;;26.03;52.60
54042;BME280;41156;51.508;5.406;2023-07-20T10:39:55;101404.91;;;25.89;51.16
54042;BME280;41156;51.508;5.406;2023-07-20T10:42:57;101406.31;;;25.39;52.05
54042;BME280;41156;51.508;5.406;2023-07-20T10:45:59;101402.84;;;25.47;52.29
54042;BME280;41156;51.508;5.406;2023-07-20T10:49:03;101398.97;;;25.81;51.04
54042;BME280;41156;51.508;5.406;2023-07-20T10:52:05;101400.34;;;26.26;49.71
54042;BME280;41156;51.508;5.406;2023-07-20T10:55:16;101399.31;;;26.77;48.20
54042;BME280;41156;51.508;5.406;2023-07-20T10:58:16;101398.50;;;26.76;49.53
54042;BME280;41156;51.508;5.406;2023-07-20T11:01:17;101396.66;;;26.44;49.60
54042;BME280;41156;51.508;5.406;2023-07-20T11:04:17;101401.47;;;26.25;50.04
54042;BME280;41156;51.508;5.406;2023-07-20T11:07:37;101400.16;;;26.08;48.62
54042;BME280;41156;51.508;5.406;2023-07-20T11:10:39;101396.63;;;25.89;49.85
54042;BME280;41156;51.508;5.406;2023-07-20T11:13:56;101392.31;;;25.49;47.44
54042;BME280;41156;51.508;5.406;2023-07-20T11:17:11;101388.78;;;25.30;49.76
54042;BME280;41156;51.508;5.406;2023-07-20T11:20:13;101380.53;;;25.25;50.17
54042;BME280;41156;51.508;5.406;2023-07-20T11:23:13;101384.50;;;25.19;50.24
54042;BME280;41156;51.508;5.406;2023-07-20T11:26:13;101387.78;;;25.21;50.18
54042;BME280;41156;51.508;5.406;2023-07-20T11:29:17;101381.88;;;25.27;49.50
54042;BME280;41156;51.508;5.406;2023-07-20T11:32:21;101381.72;;;25.84;48.98
54042;BME280;41156;51.508;5.406;2023-07-20T11:35:22;101376.56;;;25.97;48.39
54042;BME280;41156;51.508;5.406;2023-07-20T11:38:24;101372.31;;;25.85;46.37
54042;BME280;41156;51.508;5.406;2023-07-20T11:41:25;101377.94;;;25.66;47.99
54042;BME280;41156;51.508;5.406;2023-07-20T11:44:27;101372.91;;;25.69;48.14
54042;BME280;41156;51.508;5.406;2023-07-20T11:47:30;101379.75;;;25.71;48.18
54042;BME280;41156;51.508;5.406;2023-07-20T11:50:30;101377.47;;;25.59;48.48
54042;BME280;41156;51.508;5.406;2023-07-20T11:53:31;101373.31;;;25.43;48.67
54042;BME280;41156;51.508;5.406;2023-07-20T11:56:33;101370.00;;;25.27;48.85
54042;BME280;41156;51.508;5.406;2023-07-20T11:59:33;101365.16;;;25.00;48.79
54042;BME280;41156;51.508;5.406;2023-07-20T12:02:34;101375.31;;;24.85;48.83
54042;BME280;41156;51.508;5.406;2023-07-20T12:05:36;101368.00;;;24.75;49.62
54042;BME280;41156;51.508;5.406;2023-07-20T12:08:41;101364.66;;;24.54;49.88
54042;BME280;41156;51.508;5.406;2023-07-20T12:11:43;101360.44;;;24.62;49.58
54042;BME280;41156;51.508;5.406;2023-07-20T12:14:45;101362.63;;;24.84;49.64
54042;BME280;41156;51.508;5.406;2023-07-20T12:17:46;101353.88;;;25.15;49.18
54042;BME280;41156;51.508;5.406;2023-07-20T12:20:47;101349.47;;;25.47;48.41
54042;BME280;41156;51.508;5.406;2023-07-20T12:23:47;101352.44;;;25.37;48.78
54042;BME280;41156;51.508;5.406;2023-07-20T12:26:47;101362.63;;;25.03;49.28
54042;BME280;41156;51.508;5.406;2023-07-20T12:29:48;101363.91;;;24.92;49.51
54042;BME280;41156;51.508;5.406;2023-07-20T12:32:48;101357.75;;;24.76;49.77
54042;BME280;41156;51.508;5.406;2023-07-20T12:35:51;101361.03;;;24.59;49.13
54042;BME280;41156;51.508;5.406;2023-07-20T12:38:55;101354.47;;;24.31;50.43
54042;BME280;41156;51.508;5.406;2023-07-20T12:41:56;101355.97;;;24.23;50.96
54042;BME280;41156;51.508;5.406;2023-07-20T12:44:56;101363.63;;;24.26;50.64
54042;BME280;41156;51.508;5.406;2023-07-20T12:47:56;101362.06;;;24.20;51.30
54042;BME280;41156;51.508;5.406;2023-07-20T12:50:57;101360.44;;;24.38;51.31
54042;BME280;41156;51.508;5.406;2023-07-20T12:53:57;101356.09;;;24.56;51.40
54042;BME280;41156;51.508;5.406;2023-07-20T12:56:57;101349.16;;;24.78;51.07
54042;BME280;41156;51.508;5.406;2023-07-20T12:59:58;101350.88;;;24.92;51.21
54042;BME280;41156;51.508;5.406;2023-07-20T13:02:58;101354.31;;;25.03;50.72
54042;BME280;41156;51.508;5.406;2023-07-20T13:05:59;101345.56;;;24.96;50.45
54042;BME280;41156;51.508;5.406;2023-07-20T13:08:59;101352.03;;;24.91;50.29
54042;BME280;41156;51.508;5.406;2023-07-20T13:12:00;101343.78;;;24.67;50.59
54042;BME280;41156;51.508;5.406;2023-07-20T13:15:02;101344.34;;;24.45;50.80
54042;BME280;41156;51.508;5.406;2023-07-20T13:18:05;101333.97;;;24.37;51.73
54042;BME280;41156;51.508;5.406;2023-07-20T13:21:06;101331.66;;;24.44;51.56
54042;BME280;41156;51.508;5.406;2023-07-20T13:24:10;101333.03;;;24.66;51.44
54042;BME280;41156;51.508;5.406;2023-07-20T13:27:10;101327.16;;;24.91;50.93
54042;BME280;41156;51.508;5.406;2023-07-20T13:30:11;101331.44;;;25.17;50.15
54042;BME280;41156;51.508;5.406;2023-07-20T13:33:16;101325.28;;;25.39;50.41
54042;BME280;41156;51.508;5.406;2023-07-20T13:36:16;101325.31;;;25.53;49.90
54042;BME280;41156;51.508;5.406;2023-07-20T13:39:17;101318.91;;;25.85;48.85
54042;BME280;41156;51.508;5.406;2023-07-20T13:42:17;101317.38;;;26.20;48.08
54042;BME280;41156;51.508;5.406;2023-07-20T13:45:18;101311.91;;;26.43;47.61
54042;BME280;41156;51.508;5.406;2023-07-20T13:48:18;101311.72;;;26.76;47.40
54042;BME280;41156;51.508;5.406;2023-07-20T13:51:23;101303.06;;;26.91;46.52
54042;BME280;41156;51.508;5.406;2023-07-20T13:54:24;101311.13;;;27.02;45.90
54042;BME280;41156;51.508;5.406;2023-07-20T13:57:24;101313.25;;;26.82;46.48
54042;BME280;41156;51.508;5.406;2023-07-20T14:00:24;101315.34;;;26.76;46.60
54042;BME280;41156;51.508;5.406;2023-07-20T14:03:26;101306.13;;;26.53;47.00
54042;BME280;41156;51.508;5.406;2023-07-20T14:06:30;101301.78;;;26.75;46.07
54042;BME280;41156;51.508;5.406;2023-07-20T14:09:30;101293.22;;;26.85;46.07
54042;BME280;41156;51.508;5.406;2023-07-20T14:12:31;101290.06;;;26.78;45.93
54042;BME280;41156;51.508;5.406;2023-07-20T14:15:31;101290.06;;;26.78;45.93
54042;BME280;41156;51.508;5.406;2023-07-20T14:18:31;101281.50;;;26.52;45.59
54042;BME280;41156;51.508;5.406;2023-07-20T14:21:32;101274.53;;;26.40;45.85
54042;BME280;41156;51.508;5.406;2023-07-20T14:24:33;101271.47;;;26.42;45.43
54042;BME280;41156;51.508;5.406;2023-07-20T14:27:33;101267.16;;;26.36;45.73
54042;BME280;41156;51.508;5.406;2023-07-20T14:30:33;101273.75;;;26.40;45.79
54042;BME280;41156;51.508;5.406;2023-07-20T14:33:34;101266.50;;;26.67;45.26
54042;BME280;41156;51.508;5.406;2023-07-20T14:36:36;101267.63;;;26.66;45.20
54042;BME280;41156;51.508;5.406;2023-07-20T14:39:36;101267.72;;;26.61;45.41
54042;BME280;41156;51.508;5.406;2023-07-20T14:42:36;101262.97;;;26.38;45.36
54042;BME280;41156;51.508;5.406;2023-07-20T14:45:37;101263.63;;;26.21;45.37
54042;BME280;41156;51.508;5.406;2023-07-20T14:48:40;101268.97;;;26.04;45.96
54042;BME280;41156;51.508;5.406;2023-07-20T14:51:40;101274.69;;;25.94;45.99
54042;BME280;41156;51.508;5.406;2023-07-20T14:54:46;101267.22;;;25.80;46.59
54042;BME280;41156;51.508;5.406;2023-07-20T14:57:48;101258.00;;;25.57;47.03
54042;BME280;41156;51.508;5.406;2023-07-20T15:00:48;101268.22;;;25.43;47.22
54042;BME280;41156;51.508;5.406;2023-07-20T15:03:48;101261.78;;;25.15;47.60
54042;BME280;41156;51.508;5.406;2023-07-20T15:06:52;101263.59;;;25.05;47.93
54042;BME280;41156;51.508;5.406;2023-07-20T15:09:52;101261.53;;;24.97;47.95
54042;BME280;41156;51.508;5.406;2023-07-20T15:12:53;101266.63;;;24.90;48.10
54042;BME280;41156;51.508;5.406;2023-07-20T15:15:53;101261.78;;;24.82;48.37
54042;BME280;41156;51.508;5.406;2023-07-20T15:18:54;101255.09;;;24.69;48.69
54042;BME280;41156;51.508;5.406;2023-07-20T15:21:54;101260.38;;;24.65;48.87
54042;BME280;41156;51.508;5.406;2023-07-20T15:24:54;101251.34;;;24.60;48.87
54042;BME280;41156;51.508;5.406;2023-07-20T15:27:55;101251.66;;;24.58;48.82
54042;BME280;41156;51.508;5.406;2023-07-20T15:31:04;101253.34;;;24.54;49.06
54042;BME280;41156;51.508;5.406;2023-07-20T15:34:05;101250.66;;;24.49;48.80
54042;BME280;41156;51.508;5.406;2023-07-20T15:37:06;101244.69;;;24.42;49.16
54042;BME280;41156;51.508;5.406;2023-07-20T15:40:07;101233.25;;;24.29;49.27
54042;BME280;41156;51.508;5.406;2023-07-20T15:43:07;101233.41;;;24.19;49.54
54042;BME280;41156;51.508;5.406;2023-07-20T15:49:20;101228.19;;;24.17;49.60
54042;BME280;41156;51.508;5.406;2023-07-20T15:52:21;101224.03;;;24.20;49.38
54042;BME280;41156;51.508;5.406;2023-07-20T15:55:23;101224.03;;;24.20;49.82
54042;BME280;41156;51.508;5.406;2023-07-20T15:58:23;101233.94;;;24.21;49.50
54042;BME280;41156;51.508;5.406;2023-07-20T16:01:23;101230.50;;;24.10;49.32
54042;BME280;41156;51.508;5.406;2023-07-20T16:04:24;101226.69;;;24.06;49.97